createdAt,value
2023-01-17T00:02:18.868Z,11.30
2023-01-17T00:05:05.368Z,9.13
2023-01-17T00:07:51.592Z,9.13
2023-01-17T00:10:22.841Z,9.00
2023-01-17T00:12:59.184Z,9.30
2023-01-17T00:15:28.438Z,11.80
2023-01-17T00:17:55.375Z,11.40
2023-01-17T00:20:47.114Z,10.30
2023-01-17T00:23:43.505Z,9.60
2023-01-17T00:26:17.229Z,9.67
2023-01-17T00:28:45.121Z,10.60
2023-01-17T00:31:15.287Z,9.53
2023-01-17T00:33:42.418Z,10.13
2023-01-17T00:36:10.566Z,9.17
2023-01-17T00:38:40.929Z,10.00
2023-01-17T00:41:13.891Z,10.47
2023-01-17T00:43:59.351Z,9.90
2023-01-17T00:46:44.930Z,9.87
2023-01-17T00:49:30.121Z,11.07
2023-01-17T00:52:15.398Z,9.97
2023-01-17T00:55:00.650Z,11.63
2023-01-17T00:57:45.919Z,9.97
2023-01-17T01:00:32.319Z,12.77
2023-01-17T01:03:17.643Z,10.10
2023-01-17T01:06:02.869Z,10.67
2023-01-17T01:08:49.207Z,13.90
2023-01-17T01:11:39.864Z,12.20
2023-01-17T01:14:28.781Z,10.70
2023-01-17T01:17:13.988Z,11.90
2023-01-17T01:19:59.576Z,12.10
2023-01-17T01:22:44.815Z,10.43
2023-01-17T01:25:30.802Z,14.47
2023-01-17T01:28:29.977Z,12.03
2023-01-17T01:31:18.729Z,13.27
2023-01-17T01:33:45.696Z,14.00
2023-01-17T01:36:12.748Z,12.93
2023-01-17T01:38:40.117Z,15.70
2023-01-17T01:41:07.378Z,10.70
2023-01-17T01:43:44.701Z,14.03
2023-01-17T01:46:37.066Z,16.97
2023-01-17T01:49:19.082Z,12.70
2023-01-17T01:51:52.655Z,13.90
2023-01-17T01:54:27.387Z,10.50
2023-01-17T01:56:57.490Z,9.53
2023-01-17T01:59:25.085Z,8.67
2023-01-17T02:01:55.292Z,8.40
2023-01-17T02:04:24.103Z,9.50
2023-01-17T02:07:02.765Z,11.20
2023-01-17T02:09:29.645Z,10.57
2023-01-17T02:11:56.694Z,12.30
2023-01-17T02:14:23.910Z,10.30
2023-01-17T02:17:11.618Z,10.73
2023-01-17T02:20:32.905Z,11.60
2023-01-17T02:23:27.412Z,12.67
2023-01-17T02:26:31.615Z,12.27
2023-01-17T02:29:06.879Z,12.90
2023-01-17T02:31:55.633Z,10.50
2023-01-17T02:34:29.134Z,11.40
2023-01-17T02:37:15.910Z,12.90
2023-01-17T02:40:52.868Z,14.77
2023-01-17T02:43:22.874Z,13.23
2023-01-17T02:45:52.515Z,12.77
2023-01-17T02:48:25.194Z,14.93
2023-01-17T02:51:07.033Z,13.07
2023-01-17T02:54:03.219Z,13.17
2023-01-17T02:56:51.860Z,18.63
2023-01-17T02:59:38.430Z,14.70
2023-01-17T03:02:45.413Z,13.33
2023-01-17T03:05:26.046Z,14.13
2023-01-17T03:07:53.821Z,14.20
2023-01-17T03:10:21.974Z,13.73
2023-01-17T03:12:48.952Z,13.30
2023-01-17T03:15:17.672Z,11.47
2023-01-17T03:17:50.939Z,11.70
2023-01-17T03:20:18.046Z,12.47
2023-01-17T03:22:45.007Z,12.83
2023-01-17T03:25:11.984Z,11.77
2023-01-17T03:27:39.049Z,11.63
2023-01-17T03:30:07.344Z,12.43
2023-01-17T03:32:34.326Z,12.73
2023-01-17T03:35:01.228Z,13.03
2023-01-17T03:37:28.084Z,11.37
2023-01-17T03:39:55.013Z,12.17
2023-01-17T03:42:21.896Z,12.57
2023-01-17T03:44:48.795Z,13.10
2023-01-17T03:47:15.839Z,12.50
2023-01-17T03:49:42.726Z,12.50
2023-01-17T03:52:09.591Z,11.50
2023-01-17T03:54:36.637Z,11.30
2023-01-17T03:57:03.556Z,12.07
2023-01-17T03:59:30.463Z,10.40
2023-01-17T04:01:57.431Z,10.10
2023-01-17T04:04:24.430Z,12.27
2023-01-17T04:06:51.284Z,12.40
2023-01-17T04:09:18.281Z,13.30
2023-01-17T04:11:45.168Z,12.40
2023-01-17T04:14:12.061Z,10.70
2023-01-17T04:16:39.059Z,13.03
2023-01-17T04:19:06.008Z,10.53
2023-01-17T04:21:32.986Z,10.23
2023-01-17T04:23:59.847Z,11.20
2023-01-17T04:26:26.740Z,13.03
2023-01-17T04:28:53.598Z,12.20
2023-01-17T04:31:20.649Z,11.47
2023-01-17T04:33:47.615Z,11.33
2023-01-17T04:36:14.528Z,12.20
2023-01-17T04:38:41.526Z,12.20
2023-01-17T04:41:08.483Z,16.30
2023-01-17T04:43:35.616Z,15.23
2023-01-17T04:46:04.787Z,14.90
2023-01-17T04:48:31.748Z,14.23
2023-01-17T04:51:03.312Z,14.00
2023-01-17T04:53:30.282Z,14.93
2023-01-17T04:55:57.500Z,18.00
2023-01-17T04:58:24.730Z,12.27
2023-01-17T05:00:51.805Z,14.73
2023-01-17T05:03:20.671Z,15.40
2023-01-17T05:05:47.974Z,14.43
2023-01-17T05:08:15.284Z,14.17
2023-01-17T05:10:42.200Z,14.00
2023-01-17T05:13:09.685Z,15.00
2023-01-17T05:15:36.824Z,13.80
2023-01-17T05:18:08.657Z,13.93
2023-01-17T05:20:36.584Z,12.40
2023-01-17T05:23:09.411Z,24.57
2023-01-17T05:25:46.135Z,67.90
2023-01-17T05:28:13.824Z,61.57
2023-01-17T05:30:41.262Z,55.80
2023-01-17T05:33:10.128Z,68.60
2023-01-17T05:35:37.290Z,17.77
2023-01-17T05:38:04.242Z,11.77
2023-01-17T05:40:33.215Z,15.93
2023-01-17T05:43:03.287Z,13.63
2023-01-17T05:45:36.329Z,10.97
2023-01-17T05:48:04.126Z,14.07
2023-01-17T05:50:40.197Z,12.00
2023-01-17T05:53:11.262Z,12.80
2023-01-17T05:55:39.508Z,8.93
2023-01-17T05:58:08.836Z,12.53
2023-01-17T06:00:35.772Z,10.33
2023-01-17T06:03:02.703Z,10.57
2023-01-17T06:05:30.257Z,11.90
2023-01-17T06:07:57.560Z,12.07
2023-01-17T06:33:46.322Z,16.43
2023-01-17T06:43:20.356Z,10.50
2023-01-17T07:02:12.842Z,11.53
2023-01-17T07:04:39.804Z,10.90
2023-01-17T07:07:06.859Z,11.27
2023-01-17T07:09:33.895Z,10.33
2023-01-17T07:12:02.020Z,13.00
2023-01-17T07:14:29.347Z,13.60
2023-01-17T07:16:57.126Z,12.17
2023-01-17T07:19:24.459Z,11.93
2023-01-17T07:21:53.194Z,14.80
2023-01-17T07:24:21.468Z,17.70
2023-01-17T07:26:51.511Z,18.90
2023-01-17T07:30:00.992Z,26.93
2023-01-17T07:33:35.938Z,18.10
2023-01-17T07:39:48.151Z,11.50
2023-01-17T07:53:06.447Z,11.07
2023-01-17T07:55:34.125Z,15.30
2023-01-17T07:58:03.091Z,13.73
2023-01-17T08:00:36.657Z,16.10
2023-01-17T08:10:23.419Z,10.17
2023-01-17T08:14:02.579Z,12.20
2023-01-17T08:45:42.464Z,14.80
2023-01-17T08:48:13.395Z,13.13
2023-01-17T08:50:40.432Z,25.17
2023-01-17T08:53:07.499Z,19.80
2023-01-17T08:58:49.736Z,10.70
2023-01-17T09:12:42.786Z,40.17
2023-01-17T09:22:39.470Z,9.27
2023-01-17T09:25:07.677Z,11.97
2023-01-17T09:27:34.798Z,11.17
2023-01-17T09:30:01.829Z,12.60
2023-01-17T09:32:28.806Z,9.97
2023-01-17T09:35:00.579Z,8.00
2023-01-17T09:37:27.638Z,9.67
2023-01-17T09:39:54.570Z,8.20
2023-01-17T09:42:34.696Z,8.83
2023-01-17T09:45:02.100Z,9.90
2023-01-17T09:47:40.567Z,11.60
2023-01-17T09:50:33.855Z,7.77
2023-01-17T09:53:15.044Z,7.93
2023-01-17T09:55:58.927Z,7.00
2023-01-17T09:58:48.372Z,6.60
2023-01-17T10:01:37.687Z,6.23
2023-01-17T10:04:28.398Z,7.33
2023-01-17T10:07:11.716Z,8.13
2023-01-17T10:10:16.634Z,13.97
2023-01-17T10:13:16.202Z,9.73
2023-01-17T10:15:57.719Z,32.13
2023-01-17T10:18:56.473Z,23.80
2023-01-17T10:21:42.515Z,7.70
2023-01-17T10:24:52.211Z,6.77
2023-01-17T10:27:29.597Z,6.73
2023-01-17T10:30:00.959Z,4.87
2023-01-17T10:32:32.378Z,4.97
2023-01-17T10:35:08.323Z,3.73
2023-01-17T10:37:41.018Z,3.10
2023-01-17T10:40:18.006Z,3.80
2023-01-17T10:42:53.857Z,3.90
2023-01-17T10:45:32.164Z,6.40
2023-01-17T10:48:33.618Z,4.37
2023-01-17T10:51:29.373Z,4.80
2023-01-17T10:54:51.400Z,4.47
2023-01-17T10:57:27.288Z,6.53
2023-01-17T10:59:59.178Z,4.03
2023-01-17T11:02:47.600Z,4.33
2023-01-17T11:05:34.139Z,3.70
2023-01-17T11:08:15.088Z,16.30
2023-01-17T11:10:53.991Z,4.50
2023-01-17T11:13:52.340Z,4.97
2023-01-17T11:16:26.713Z,4.37
2023-01-17T11:19:19.364Z,5.27
2023-01-17T11:22:06.692Z,52.47
2023-01-17T11:24:42.161Z,16.17
2023-01-17T11:27:32.649Z,25.47
2023-01-17T11:30:20.693Z,14.93
2023-01-17T11:33:03.207Z,13.37
2023-01-17T11:35:34.995Z,6.67
2023-01-17T11:38:06.619Z,4.90
2023-01-17T11:40:45.863Z,6.60
2023-01-17T11:43:14.254Z,4.70
2023-01-17T11:45:41.842Z,5.67
2023-01-17T11:48:08.729Z,7.13
2023-01-17T11:50:40.999Z,9.07
2023-01-17T11:53:32.901Z,11.73
2023-01-17T11:56:11.214Z,8.30
2023-01-17T11:58:41.758Z,9.93
2023-01-17T12:01:42.748Z,13.30
2023-01-17T12:04:20.426Z,10.67
2023-01-17T12:07:04.872Z,7.40
2023-01-17T12:09:48.922Z,7.63
2023-01-17T12:12:47.446Z,7.83
2023-01-17T12:15:35.278Z,7.17
2023-01-17T12:18:29.172Z,6.97
2023-01-17T12:21:20.642Z,6.10
2023-01-17T12:24:47.358Z,6.53
2023-01-17T12:27:46.933Z,5.47
2023-01-17T12:30:44.866Z,5.10
2023-01-17T12:33:32.962Z,4.97
2023-01-17T12:36:40.090Z,36.23
2023-01-17T12:39:11.935Z,12.70
2023-01-17T12:41:59.065Z,6.00
2023-01-17T12:45:15.467Z,6.00
2023-01-17T12:47:54.447Z,7.67
2023-01-17T12:50:37.230Z,6.20
2023-01-17T12:53:47.667Z,5.17
2023-01-17T12:56:32.131Z,5.37
2023-01-17T12:59:33.081Z,6.30
2023-01-17T13:02:03.772Z,8.20
2023-01-17T13:04:57.463Z,5.80
2023-01-17T13:07:32.030Z,6.50
2023-01-17T13:10:22.593Z,4.93
2023-01-17T13:12:50.780Z,5.23
2023-01-17T13:15:23.373Z,6.00
2023-01-17T13:17:57.623Z,8.23
2023-01-17T13:20:35.993Z,5.60
2023-01-17T13:23:35.507Z,5.63
2023-01-17T13:26:07.470Z,5.80
2023-01-17T13:29:02.970Z,5.70
2023-01-17T13:31:39.219Z,5.20
2023-01-17T13:34:37.955Z,6.03
2023-01-17T13:37:29.327Z,6.20
2023-01-17T13:40:29.781Z,6.80
2023-01-17T13:43:19.730Z,6.30
2023-01-17T13:45:59.761Z,6.50
2023-01-17T13:48:31.300Z,7.67
2023-01-17T13:51:03.184Z,6.73
2023-01-17T13:53:39.446Z,8.33
2023-01-17T13:56:29.684Z,8.40
2023-01-17T13:59:03.705Z,7.90
2023-01-17T14:01:43.624Z,7.93
2023-01-17T14:07:26.590Z,7.80
2023-01-17T14:09:54.185Z,7.30
2023-01-17T14:12:26.327Z,8.60
2023-01-17T14:14:57.267Z,9.30
2023-01-17T14:17:28.457Z,8.33
2023-01-17T14:20:01.132Z,7.83
2023-01-17T14:22:36.351Z,8.93
2023-01-17T14:25:17.614Z,7.73
2023-01-17T14:27:55.253Z,9.23
2023-01-17T14:30:33.908Z,9.23
2023-01-17T14:33:01.125Z,8.33
2023-01-17T14:35:34.575Z,8.37
2023-01-17T14:38:03.175Z,8.97
2023-01-17T14:40:33.785Z,7.73
2023-01-17T14:43:15.120Z,9.07
2023-01-17T14:45:43.732Z,9.23
2023-01-17T14:48:21.208Z,10.83
2023-01-17T14:50:50.776Z,10.80
2023-01-17T14:53:28.375Z,12.17
2023-01-17T14:56:03.658Z,11.73
2023-01-17T14:58:36.335Z,13.13
2023-01-17T15:01:11.063Z,15.53
2023-01-17T15:03:51.999Z,18.10
2023-01-17T15:06:23.171Z,13.03
2023-01-17T15:08:54.143Z,11.47
2023-01-17T15:11:27.460Z,12.97
2023-01-17T15:13:57.627Z,12.13
2023-01-17T15:16:35.313Z,14.17
2023-01-17T15:19:03.202Z,14.20
2023-01-17T15:21:40.415Z,14.53
2023-01-17T15:24:13.365Z,13.50
2023-01-17T15:26:43.354Z,11.90
2023-01-17T15:29:32.840Z,12.30
2023-01-17T15:32:03.488Z,14.33
2023-01-17T15:34:37.858Z,13.40
2023-01-17T15:37:34.986Z,13.03
2023-01-17T15:40:17.061Z,13.53
2023-01-17T15:42:47.700Z,23.37
2023-01-17T15:45:19.983Z,12.90
2023-01-17T15:47:47.993Z,16.00
2023-01-17T15:50:38.604Z,12.77
2023-01-17T15:53:29.450Z,12.20
2023-01-17T15:55:56.488Z,11.27
2023-01-17T15:58:29.790Z,13.73
2023-01-17T16:00:57.399Z,14.87
2023-01-17T16:03:29.398Z,14.83
2023-01-17T16:06:00.223Z,15.20
2023-01-17T16:08:34.155Z,15.63
2023-01-17T16:11:05.987Z,15.13
2023-01-17T16:13:38.660Z,16.40
2023-01-17T16:16:24.068Z,17.23
2023-01-17T16:19:00.140Z,17.23
2023-01-17T16:21:30.476Z,13.37
2023-01-17T16:23:58.543Z,16.97
2023-01-17T16:26:26.084Z,21.20
2023-01-17T16:28:53.055Z,19.60
2023-01-17T16:31:20.219Z,18.93
2023-01-17T16:33:50.735Z,27.57
2023-01-17T16:36:18.370Z,30.57
2023-01-17T16:38:49.299Z,29.77
2023-01-17T16:41:16.382Z,21.23
2023-01-17T16:43:43.921Z,23.00
2023-01-17T16:46:17.010Z,23.67
2023-01-17T16:48:44.103Z,23.27
2023-01-17T16:51:13.423Z,23.87
2023-01-17T16:53:40.466Z,27.53
2023-01-17T16:56:13.643Z,23.00
2023-01-17T16:58:41.220Z,21.53
2023-01-17T17:01:20.766Z,20.17
2023-01-17T17:03:48.210Z,26.90
2023-01-17T17:06:15.143Z,24.80
2023-01-17T17:08:43.099Z,26.00
2023-01-17T17:11:19.757Z,26.27
2023-01-17T17:13:49.025Z,27.57
2023-01-17T17:16:27.424Z,37.37
2023-01-17T17:18:58.644Z,35.50
2023-01-17T17:21:26.483Z,31.80
2023-01-17T17:23:59.108Z,30.33
2023-01-17T17:26:30.983Z,29.23
2023-01-17T17:28:58.645Z,31.83
2023-01-17T17:31:26.152Z,29.83
2023-01-17T17:33:53.545Z,32.53
2023-01-17T17:36:20.655Z,27.83
2023-01-17T17:38:53.777Z,30.40
2023-01-17T17:41:24.448Z,29.43
2023-01-17T17:43:52.474Z,28.83
2023-01-17T17:46:21.939Z,29.57
2023-01-17T17:48:49.151Z,38.47
2023-01-17T17:51:36.606Z,60.33
2023-01-17T17:54:13.587Z,55.90
2023-01-17T17:56:42.332Z,38.43
2023-01-17T17:59:09.958Z,32.10
2023-01-17T18:01:38.532Z,33.30
2023-01-17T18:04:07.470Z,30.77
2023-01-17T18:06:36.116Z,32.63
2023-01-17T18:09:03.760Z,34.43
2023-01-17T18:11:31.255Z,27.13
2023-01-17T18:14:02.056Z,31.70
2023-01-17T18:16:41.662Z,28.47
2023-01-17T18:19:15.538Z,29.57
2023-01-17T18:21:43.098Z,29.53
2023-01-17T18:24:14.110Z,33.00
2023-01-17T18:26:43.714Z,27.23
2023-01-17T18:29:16.222Z,31.13
2023-01-17T18:31:45.276Z,31.33
2023-01-17T18:34:15.922Z,32.53
2023-01-17T18:36:43.768Z,34.17
2023-01-17T18:39:20.951Z,85.63
2023-01-17T18:41:49.038Z,72.43
2023-01-17T18:44:16.989Z,49.60
2023-01-17T18:46:44.024Z,34.10
2023-01-17T18:49:12.255Z,28.93
2023-01-17T18:51:39.341Z,27.90
2023-01-17T18:54:08.735Z,26.13
2023-01-17T18:56:35.966Z,29.13
2023-01-17T18:59:07.076Z,29.30
2023-01-17T19:01:36.334Z,29.13
2023-01-17T19:04:05.444Z,28.50
2023-01-17T19:06:39.380Z,46.63
2023-01-17T19:09:08.245Z,62.53
2023-01-17T19:11:37.029Z,49.30
2023-01-17T19:14:05.035Z,42.47
2023-01-17T19:16:36.640Z,43.90
2023-01-17T19:19:07.652Z,38.93
2023-01-17T19:21:34.988Z,67.60
2023-01-17T19:24:02.479Z,40.03
2023-01-17T19:26:30.101Z,38.37
2023-01-17T19:29:03.643Z,25.57
2023-01-17T19:31:32.228Z,22.20
2023-01-17T19:34:00.252Z,23.50
2023-01-17T19:36:31.810Z,24.33
2023-01-17T19:39:04.956Z,24.80
2023-01-17T19:41:38.459Z,22.43
2023-01-17T19:44:09.414Z,26.03
2023-01-17T19:46:37.615Z,25.10
2023-01-17T19:49:08.410Z,31.47
2023-01-17T19:51:36.005Z,24.80
2023-01-17T19:54:04.209Z,31.20
2023-01-17T19:56:31.414Z,25.07
2023-01-17T19:59:01.162Z,19.27
2023-01-17T20:01:32.116Z,16.63
2023-01-17T20:04:01.744Z,21.27
2023-01-17T20:06:33.050Z,17.50
2023-01-17T20:09:00.132Z,17.80
2023-01-17T20:11:28.441Z,21.37
2023-01-17T20:13:58.346Z,24.63
2023-01-17T20:16:30.128Z,21.70
2023-01-17T20:18:59.307Z,20.13
2023-01-17T20:21:28.914Z,19.33
2023-01-17T20:23:58.733Z,22.73
2023-01-17T20:26:34.921Z,17.97
2023-01-17T20:29:13.468Z,21.23
2023-01-17T20:31:42.726Z,24.63
2023-01-17T20:34:12.809Z,22.93
2023-01-17T20:36:42.004Z,18.90
2023-01-17T20:39:11.448Z,22.03
2023-01-17T20:41:41.549Z,20.20
2023-01-17T20:44:15.891Z,25.30
2023-01-17T20:46:44.009Z,21.10
2023-01-17T20:49:15.970Z,18.20
2023-01-17T20:51:44.612Z,22.30
2023-01-17T20:54:15.274Z,19.90
2023-01-17T20:56:42.965Z,18.83
2023-01-17T20:59:15.159Z,23.73
2023-01-17T21:01:45.193Z,26.90
2023-01-17T21:04:13.049Z,26.33
2023-01-17T21:06:41.637Z,29.17
2023-01-17T21:09:14.017Z,23.13
2023-01-17T21:11:41.310Z,20.10
2023-01-17T21:14:08.283Z,22.70
2023-01-17T21:16:36.224Z,21.10
2023-01-17T21:19:03.446Z,18.57
2023-01-17T21:21:30.699Z,24.00
2023-01-17T21:23:59.360Z,20.73
2023-01-17T21:26:28.628Z,21.90
2023-01-17T21:28:56.071Z,22.97
2023-01-17T21:31:30.066Z,22.37
2023-01-17T21:34:06.532Z,24.33
2023-01-17T21:36:40.374Z,25.20
2023-01-17T21:39:12.996Z,21.80
2023-01-17T21:41:41.131Z,23.23
2023-01-17T21:44:16.856Z,27.27
2023-01-17T21:46:43.893Z,20.67
2023-01-17T21:49:12.013Z,17.70
2023-01-17T21:51:55.472Z,18.23
2023-01-17T21:54:53.017Z,16.10
2023-01-17T21:57:40.404Z,14.30
2023-01-17T22:00:16.553Z,16.73
2023-01-17T22:02:45.991Z,15.67
2023-01-17T22:05:14.922Z,15.90
2023-01-17T22:08:02.187Z,15.90
2023-01-17T22:10:29.352Z,16.20
2023-01-17T22:12:56.511Z,15.70
2023-01-17T22:15:23.715Z,17.20
2023-01-17T22:17:50.597Z,16.60
2023-01-17T22:20:19.125Z,15.87
2023-01-17T22:22:48.402Z,15.80
2023-01-17T22:25:15.375Z,13.93
2023-01-17T22:27:42.272Z,17.10
2023-01-17T22:30:12.987Z,16.00
2023-01-17T22:32:40.825Z,15.07
2023-01-17T22:35:09.419Z,12.40
2023-01-17T22:37:36.351Z,9.73
2023-01-17T22:40:05.014Z,11.83
2023-01-17T22:42:35.165Z,11.07
2023-01-17T22:45:02.248Z,13.10
2023-01-17T22:47:29.279Z,13.57
2023-01-17T22:49:56.228Z,11.67
2023-01-17T22:52:23.262Z,11.60
2023-01-17T22:54:50.703Z,10.90
2023-01-17T22:57:18.323Z,12.27
2023-01-17T22:59:45.246Z,10.87
2023-01-17T23:02:12.235Z,12.07
2023-01-17T23:04:39.157Z,11.70
2023-01-17T23:07:06.104Z,9.53
2023-01-17T23:09:33.039Z,9.77
2023-01-17T23:12:00.311Z,11.40
2023-01-17T23:14:54.580Z,9.70
2023-01-17T23:17:42.480Z,8.03
2023-01-17T23:20:11.404Z,9.50
2023-01-17T23:22:38.347Z,8.80
2023-01-17T23:25:11.997Z,7.57
2023-01-17T23:28:01.937Z,7.30
2023-01-17T23:30:50.366Z,9.50
2023-01-17T23:33:17.951Z,7.57
2023-01-17T23:35:46.747Z,7.57
2023-01-17T23:38:33.571Z,9.37
2023-01-17T23:41:24.745Z,6.53
2023-01-17T23:43:56.320Z,6.30
2023-01-17T23:46:25.639Z,7.63
2023-01-17T23:48:52.956Z,6.63
2023-01-17T23:51:19.930Z,5.90
2023-01-17T23:53:47.028Z,6.17
2023-01-17T23:56:21.080Z,6.77
2023-01-17T23:58:48.182Z,6.27
